Weather at Lee Field

Public forecast

Using degrees Fahrenheit for public forecast. Weather courtesy of forecast.io.

Closest aviation weather report (METAR) to Lee Field

Closest report is Middle Peninsula Regional Airport, 4.8 nm (8.9 km) ESE. Retrieved 2020/09/28 01:35 UTC (0 seconds ago):

KFYJ 280135Z AUTO 00000KT 10SM CLR 20/19 A2996 RMK AO1 T01980188

Closest aviation forecast (TAF) to Lee Field

Closest forecast is Richmond International Airport, 22.5 nm (41.7 km) W. Retrieved 2020-09-28 00:24 UTC (1 hour ago):

TAF KRIC 272321Z 2800/2824 19005KT P6SM FEW040 BKN250 FM280600 VRB03KT P6SM VCSH BKN035 FM280900 VRB04KT P6SM OVC080 FM281300 VRB03KT P6SM BKN035 FM281600 21008KT P6SM BKN050